Time;durP1;ratioP1;P1;durP2;ratioP2;P2;SDS_P1;SDS_P2;PMS_P1;PMS_P2;Temp;Humidity;BMP_temperature;BMP_pressure;BME280_temperature;BME280_humidity;BME280_pressure;Samples;Min_cycle;Max_cycle;Signal;HPM_P1;HPM_P2
2020/12/29 00:00:01;;;;;;;1.80;1.70;;;4.40;99.90;;;;;;2106456;28;20024;-77
2020/12/29 00:01:02;;;;;;;3.17;2.13;;;4.40;99.90;;;;;;2106651;28;20396;-75
2020/12/29 00:02:06;;;;;;;2.15;2.00;;;4.40;99.90;;;;;;2106769;28;20028;-74
2020/12/29 00:03:07;;;;;;;1.55;1.45;;;4.40;99.90;;;;;;2106276;28;20541;-75
2020/12/29 00:04:10;;;;;;;1.60;1.50;;;4.40;99.90;;;;;;2106498;28;20024;-76
2020/12/29 00:05:10;;;;;;;1.73;1.63;;;4.40;99.90;;;;;;2106536;28;20020;-75
2020/12/29 00:06:11;;;;;;;1.95;1.80;;;4.30;99.90;;;;;;2106735;28;20104;-76
2020/12/29 00:07:12;;;;;;;2.13;1.92;;;4.30;99.90;;;;;;2106545;28;20549;-75
2020/12/29 00:08:13;;;;;;;2.05;1.85;;;4.30;99.90;;;;;;2106363;28;20041;-75
2020/12/29 00:09:15;;;;;;;2.40;2.00;;;4.30;99.90;;;;;;2106658;28;20034;-75
2020/12/29 00:10:16;;;;;;;2.30;2.10;;;4.30;99.90;;;;;;2106529;28;20591;-73
2020/12/29 00:11:16;;;;;;;2.55;2.05;;;4.30;99.90;;;;;;2106091;28;20035;-74
2020/12/29 00:12:17;;;;;;;2.05;1.90;;;4.20;99.90;;;;;;2105901;28;20031;-75
2020/12/29 00:13:17;;;;;;;2.55;1.95;;;4.20;99.90;;;;;;2106079;28;20024;-74
2020/12/29 00:14:20;;;;;;;2.25;2.05;;;4.20;99.90;;;;;;2106191;28;20635;-74
2020/12/29 00:15:21;;;;;;;1.92;1.83;;;4.20;99.90;;;;;;2106459;28;20162;-76
2020/12/29 00:16:21;;;;;;;2.10;2.00;;;4.20;99.90;;;;;;2106717;28;20413;-75
2020/12/29 00:17:22;;;;;;;1.98;1.85;;;4.20;99.90;;;;;;2106568;28;20020;-74
2020/12/29 00:18:22;;;;;;;1.70;1.60;;;4.10;99.90;;;;;;2105997;28;20625;-74
2020/12/29 00:19:25;;;;;;;1.92;1.70;;;4.10;99.90;;;;;;2105918;28;20026;-75
2020/12/29 00:20:26;;;;;;;2.22;2.03;;;4.10;99.90;;;;;;2106388;28;20511;-75
2020/12/29 00:21:26;;;;;;;2.13;1.92;;;4.10;99.90;;;;;;2106401;28;20023;-75
2020/12/29 00:22:27;;;;;;;3.30;2.15;;;4.10;99.90;;;;;;2106492;28;20027;-73
2020/12/29 00:23:28;;;;;;;1.88;1.77;;;4.10;99.90;;;;;;2106094;28;20023;-74
2020/12/29 00:24:28;;;;;;;1.88;1.77;;;4.00;99.90;;;;;;2106519;28;20026;-78
2020/12/29 00:25:29;;;;;;;1.92;1.70;;;4.00;99.90;;;;;;2106467;28;20090;-74
2020/12/29 00:26:29;;;;;;;2.25;1.80;;;4.00;99.90;;;;;;2105754;28;20039;-74
2020/12/29 00:27:30;;;;;;;2.38;1.80;;;4.00;99.90;;;;;;2105926;28;20024;-75
2020/12/29 00:28:31;;;;;;;2.13;1.73;;;4.00;99.90;;;;;;2106473;28;20414;-75
2020/12/29 00:29:32;;;;;;;1.92;1.80;;;4.00;99.90;;;;;;2106424;28;20103;-74
2020/12/29 00:30:32;;;;;;;2.75;1.90;;;4.00;99.90;;;;;;2105718;28;20042;-74
2020/12/29 00:31:33;;;;;;;2.38;2.17;;;3.90;99.90;;;;;;2105911;28;20031;-75
2020/12/29 00:32:34;;;;;;;1.55;1.45;;;3.90;99.90;;;;;;2106397;28;20031;-75
2020/12/29 00:33:35;;;;;;;1.88;1.75;;;3.90;99.90;;;;;;2105978;28;20055;-75
2020/12/29 00:34:35;;;;;;;1.65;1.55;;;3.90;99.90;;;;;;2106402;28;20020;-74
2020/12/29 00:35:36;;;;;;;1.70;1.50;;;3.90;99.90;;;;;;2105772;28;20110;-75
2020/12/29 00:36:36;;;;;;;2.13;1.98;;;3.90;99.90;;;;;;2105928;28;20020;-74
2020/12/29 00:37:37;;;;;;;2.08;1.90;;;3.90;99.90;;;;;;2106334;28;20598;-75
2020/12/29 00:38:38;;;;;;;2.67;2.38;;;3.90;99.90;;;;;;2106239;28;20024;-74
2020/12/29 00:39:38;;;;;;;2.15;1.83;;;3.90;99.90;;;;;;2106355;28;20017;-75
2020/12/29 00:40:39;;;;;;;2.00;1.90;;;3.90;99.90;;;;;;2106417;28;20016;-76
2020/12/29 00:41:39;;;;;;;2.22;2.03;;;3.90;99.90;;;;;;2106692;28;20572;-74
2020/12/29 00:42:40;;;;;;;2.03;1.90;;;3.80;99.90;;;;;;2106261;28;20047;-75
2020/12/29 00:43:42;;;;;;;2.30;2.00;;;3.80;99.90;;;;;;2105978;28;20380;-75
2020/12/29 00:44:42;;;;;;;4.05;2.00;;;3.80;99.90;;;;;;2105319;28;20028;-74
2020/12/29 00:45:43;;;;;;;2.22;1.80;;;3.80;99.90;;;;;;2105819;28;20389;-74
2020/12/29 00:46:43;;;;;;;2.50;2.15;;;3.80;99.90;;;;;;2106368;28;20041;-73
2020/12/29 00:47:44;;;;;;;1.80;1.70;;;3.80;99.90;;;;;;2106413;28;20024;-74
2020/12/29 00:48:47;;;;;;;2.25;2.13;;;3.80;99.90;;;;;;2106107;28;20028;-75
2020/12/29 00:49:47;;;;;;;3.78;2.40;;;3.80;99.90;;;;;;2105208;28;20028;-75
2020/12/29 00:50:48;;;;;;;2.20;2.10;;;3.80;99.90;;;;;;2105676;28;20028;-74
2020/12/29 00:51:49;;;;;;;1.95;1.85;;;3.80;99.90;;;;;;2105816;28;20031;-74
2020/12/29 00:52:49;;;;;;;2.17;1.88;;;3.80;99.90;;;;;;2105769;28;20032;-74
2020/12/29 00:53:50;;;;;;;1.80;1.70;;;3.80;99.90;;;;;;2105613;28;20028;-74
2020/12/29 00:54:50;;;;;;;2.75;1.92;;;3.80;99.90;;;;;;2106255;28;20149;-74
2020/12/29 00:55:51;;;;;;;2.08;1.88;;;3.80;99.90;;;;;;2106316;28;20020;-74
2020/12/29 00:56:51;;;;;;;2.20;2.00;;;3.80;99.90;;;;;;2106237;28;20028;-75
2020/12/29 00:57:52;;;;;;;4.07;2.33;;;3.80;99.90;;;;;;2105536;28;20024;-75
2020/12/29 00:58:52;;;;;;;2.03;1.83;;;3.80;99.90;;;;;;2105693;28;20028;-75
2020/12/29 00:59:53;;;;;;;2.15;2.05;;;3.80;99.90;;;;;;2106242;28;20027;-75
2020/12/29 01:00:54;;;;;;;1.90;1.80;;;3.80;99.90;;;;;;2106258;28;20021;-74
2020/12/29 01:01:55;;;;;;;2.67;2.28;;;3.80;99.90;;;;;;2106118;28;20033;-75
2020/12/29 01:02:56;;;;;;;1.88;1.77;;;3.80;99.90;;;;;;2106018;28;20020;-74
2020/12/29 01:03:56;;;;;;;1.92;1.80;;;3.80;99.90;;;;;;2106029;28;20020;-76
2020/12/29 01:04:57;;;;;;;2.40;2.20;;;3.90;99.90;;;;;;2105205;28;20613;-75
2020/12/29 01:05:57;;;;;;;1.60;1.50;;;3.90;99.90;;;;;;2097295;28;20416;-75
2020/12/29 01:07:02;;;;;;;4.00;1.95;;;3.90;99.90;;;;;;2105516;28;20515;-76
2020/12/29 01:08:03;;;;;;;2.05;1.90;;;3.90;99.90;;;;;;2106381;28;20032;-75
2020/12/29 01:09:03;;;;;;;2.13;1.80;;;3.90;99.90;;;;;;2106144;28;20099;-74
2020/12/29 01:10:04;;;;;;;2.08;1.88;;;3.90;99.90;;;;;;2105399;28;20023;-74
2020/12/29 01:11:05;;;;;;;2.35;2.15;;;3.90;99.90;;;;;;2105393;28;20028;-74
2020/12/29 01:12:05;;;;;;;2.10;1.90;;;3.90;99.90;;;;;;2105696;28;20025;-75
2020/12/29 01:13:07;;;;;;;3.20;1.73;;;3.90;99.90;;;;;;2105582;28;20031;-74
2020/12/29 01:14:08;;;;;;;2.25;2.05;;;3.90;99.90;;;;;;2105859;28;20035;-75
2020/12/29 01:15:08;;;;;;;1.95;1.80;;;3.90;99.90;;;;;;2106063;28;20020;-75
2020/12/29 01:16:10;;;;;;;1.98;1.80;;;3.90;99.90;;;;;;2106172;28;20043;-75
2020/12/29 01:17:13;;;;;;;2.20;2.00;;;3.90;99.90;;;;;;2105991;28;20275;-75
2020/12/29 01:18:14;;;;;;;2.40;1.75;;;3.90;99.90;;;;;;2106064;28;20020;-76
2020/12/29 01:19:16;;;;;;;2.15;2.05;;;3.90;99.90;;;;;;2106352;28;20445;-74
2020/12/29 01:20:17;;;;;;;5.00;2.13;;;3.90;99.90;;;;;;2105885;28;20012;-74
2020/12/29 01:21:17;;;;;;;2.85;1.73;;;3.90;99.90;;;;;;2106097;28;20017;-75
2020/12/29 01:22:18;;;;;;;2.10;1.90;;;3.90;99.90;;;;;;2106054;28;20027;-74
2020/12/29 01:23:18;;;;;;;2.40;1.98;;;3.90;99.90;;;;;;2105733;28;20027;-75
2020/12/29 01:24:19;;;;;;;1.75;1.65;;;3.90;99.90;;;;;;2105323;28;20047;-76
2020/12/29 01:25:21;;;;;;;1.67;1.58;;;3.90;99.90;;;;;;2105679;28;20020;-76
2020/12/29 01:26:25;;;;;;;2.05;1.80;;;3.90;99.90;;;;;;2105195;28;20024;-74
2020/12/29 01:27:26;;;;;;;1.98;1.88;;;3.90;99.90;;;;;;2105589;28;20055;-74
2020/12/29 01:28:26;;;;;;;2.80;1.90;;;3.90;99.90;;;;;;2105834;28;20027;-74
2020/12/29 01:29:27;;;;;;;1.88;1.77;;;3.90;99.90;;;;;;2106151;28;20024;-75
2020/12/29 01:30:27;;;;;;;1.67;1.40;;;3.90;99.90;;;;;;2106155;28;20035;-74
2020/12/29 01:31:30;;;;;;;1.90;1.73;;;3.90;99.90;;;;;;2105508;28;20032;-75
2020/12/29 01:32:30;;;;;;;1.80;1.70;;;3.90;99.90;;;;;;2105135;28;20012;-74
2020/12/29 01:33:31;;;;;;;2.30;1.75;;;3.90;99.90;;;;;;2105631;28;20047;-74
2020/12/29 01:34:31;;;;;;;3.42;1.65;;;3.80;99.90;;;;;;2105533;28;20028;-74
2020/12/29 01:35:32;;;;;;;2.50;2.03;;;3.90;99.90;;;;;;2105592;28;20024;-74
2020/12/29 01:36:33;;;;;;;2.35;1.80;;;3.80;99.90;;;;;;2105361;28;20077;-75
2020/12/29 01:37:34;;;;;;;1.92;1.83;;;3.80;99.90;;;;;;2105868;28;20031;-74
2020/12/29 01:38:34;;;;;;;2.25;2.00;;;3.80;99.90;;;;;;2105080;28;20468;-75
2020/12/29 01:39:35;;;;;;;1.77;1.63;;;3.80;99.90;;;;;;2105476;28;20105;-76
2020/12/29 01:40:35;;;;;;;1.63;1.52;;;3.80;99.90;;;;;;2105903;28;20391;-75
2020/12/29 01:41:36;;;;;;;3.35;1.83;;;3.80;99.90;;;;;;2105991;28;20536;-74
2020/12/29 01:42:38;;;;;;;1.83;1.70;;;3.80;99.90;;;;;;2105788;28;20050;-74
2020/12/29 01:43:38;;;;;;;1.80;1.63;;;3.80;99.90;;;;;;2105678;28;20111;-75
2020/12/29 01:44:39;;;;;;;2.00;1.90;;;3.70;99.90;;;;;;2105461;28;20054;-74
2020/12/29 01:45:39;;;;;;;2.25;1.58;;;3.70;99.90;;;;;;2106059;28;20078;-75
2020/12/29 01:46:42;;;;;;;2.10;1.83;;;3.70;99.90;;;;;;2105735;28;20047;-76
2020/12/29 01:47:43;;;;;;;2.28;1.98;;;3.70;99.90;;;;;;2105808;28;20032;-76
2020/12/29 01:48:44;;;;;;;2.15;1.95;;;3.70;99.90;;;;;;2105806;28;20078;-74
2020/12/29 01:49:45;;;;;;;3.92;2.20;;;3.70;99.90;;;;;;2105876;28;20028;-74
2020/12/29 01:50:46;;;;;;;1.98;1.80;;;3.70;99.90;;;;;;2105605;28;20039;-74
2020/12/29 01:51:46;;;;;;;1.85;1.75;;;3.60;99.90;;;;;;2105857;28;20476;-74
2020/12/29 01:52:54;;;;;;;3.05;1.88;;;3.60;99.90;;;;;;2105778;28;20050;-74
2020/12/29 01:53:54;;;;;;;1.83;1.73;;;3.60;99.90;;;;;;2105493;28;20384;-74
2020/12/29 01:54:55;;;;;;;2.25;2.05;;;3.60;99.90;;;;;;2105388;28;20080;-74
2020/12/29 01:55:56;;;;;;;1.90;1.80;;;3.60;99.90;;;;;;2105808;28;20055;-74
2020/12/29 01:56:56;;;;;;;2.15;2.05;;;3.60;99.90;;;;;;2105458;28;20024;-74
2020/12/29 01:58:00;;;;;;;2.38;2.13;;;3.60;99.90;;;;;;2105731;28;20074;-74
2020/12/29 01:59:08;;;;;;;1.77;1.67;;;3.60;99.90;;;;;;2105705;28;20031;-74
2020/12/29 02:00:11;;;;;;;2.90;2.00;;;3.50;99.90;;;;;;2105570;28;20043;-75
2020/12/29 02:01:12;;;;;;;7.68;2.00;;;3.50;99.90;;;;;;2105771;28;20073;-74
2020/12/29 02:02:13;;;;;;;1.80;1.70;;;3.50;99.90;;;;;;2105316;28;20073;-74
2020/12/29 02:03:17;;;;;;;3.63;2.00;;;3.50;99.90;;;;;;2104616;28;20678;-74
2020/12/29 02:04:18;;;;;;;3.38;2.20;;;3.50;99.90;;;;;;2097181;28;20052;-75
2020/12/29 02:05:19;;;;;;;1.85;1.75;;;3.50;99.90;;;;;;2105071;28;20570;-76
2020/12/29 02:06:20;;;;;;;2.28;2.08;;;3.50;99.90;;;;;;2105816;28;20508;-75
2020/12/29 02:07:21;;;;;;;2.17;2.00;;;3.50;99.90;;;;;;2105638;28;20020;-75
2020/12/29 02:08:23;;;;;;;2.45;1.77;;;3.50;99.90;;;;;;2105591;28;20236;-75
2020/12/29 02:09:24;;;;;;;2.55;2.33;;;3.50;99.90;;;;;;2105409;28;20043;-75
2020/12/29 02:10:25;;;;;;;2.67;1.92;;;3.50;99.90;;;;;;2104729;28;20023;-74
2020/12/29 02:11:26;;;;;;;1.75;1.65;;;3.50;99.90;;;;;;2105131;28;20024;-74
2020/12/29 02:12:35;;;;;;;2.63;2.42;;;3.50;99.90;;;;;;2104464;28;20020;-75
2020/12/29 02:13:40;;;;;;;4.30;1.92;;;3.40;99.90;;;;;;2104077;28;20032;-74
2020/12/29 02:14:40;;;;;;;2.40;2.20;;;3.50;99.90;;;;;;2105136;28;20043;-74
2020/12/29 02:15:41;;;;;;;2.30;2.10;;;3.40;99.90;;;;;;2105680;28;20028;-74
2020/12/29 02:16:44;;;;;;;2.00;1.88;;;3.50;99.90;;;;;;2104408;28;20385;-75
2020/12/29 02:17:45;;;;;;;2.38;2.17;;;3.50;99.90;;;;;;2104996;28;20052;-74
2020/12/29 02:18:45;;;;;;;2.42;2.30;;;3.50;99.90;;;;;;2096516;28;20043;-74
2020/12/29 02:19:46;;;;;;;2.38;2.17;;;3.50;99.90;;;;;;2088186;28;20484;-75
2020/12/29 02:20:47;;;;;;;2.05;1.85;;;3.50;99.90;;;;;;2096513;28;20540;-75
2020/12/29 02:21:51;;;;;;;2.40;2.20;;;3.50;99.90;;;;;;2105675;28;20025;-75
2020/12/29 02:22:52;;;;;;;4.07;2.10;;;3.50;99.90;;;;;;2105585;28;20023;-74
2020/12/29 02:23:52;;;;;;;2.40;2.20;;;3.40;99.90;;;;;;2105236;28;20667;-74
2020/12/29 02:25:04;;;;;;;2.35;2.15;;;3.40;99.90;;;;;;2105443;28;20066;-74
2020/12/29 02:26:04;;;;;;;2.15;2.00;;;3.40;99.90;;;;;;2105750;28;20380;-75
2020/12/29 02:27:05;;;;;;;2.17;1.98;;;3.40;99.90;;;;;;2105310;28;20024;-76
2020/12/29 02:28:07;;;;;;;2.47;2.28;;;3.40;99.90;;;;;;2105400;28;20035;-77
2020/12/29 02:29:08;;;;;;;2.40;2.15;;;3.40;99.90;;;;;;2105090;28;20023;-76
2020/12/29 02:30:09;;;;;;;3.25;1.92;;;3.40;99.90;;;;;;2096782;28;20028;-75
2020/12/29 02:31:09;;;;;;;2.47;2.30;;;3.40;99.90;;;;;;2105218;28;20031;-74
2020/12/29 02:32:11;;;;;;;2.35;2.13;;;3.40;99.90;;;;;;2105469;28;20020;-74
2020/12/29 02:33:11;;;;;;;2.45;2.25;;;3.30;99.90;;;;;;2104962;28;20381;-74
2020/12/29 02:34:12;;;;;;;3.08;2.30;;;3.40;99.90;;;;;;2105220;28;20056;-74
2020/12/29 02:35:15;;;;;;;4.68;2.00;;;3.30;99.90;;;;;;2105573;28;20016;-74
2020/12/29 02:36:16;;;;;;;3.33;2.13;;;3.30;99.90;;;;;;2105626;28;20013;-74
2020/12/29 02:37:17;;;;;;;3.25;2.60;;;3.30;99.90;;;;;;2105418;28;20095;-75
2020/12/29 02:38:22;;;;;;;2.00;1.90;;;3.30;99.90;;;;;;2105546;28;20020;-75
2020/12/29 02:39:22;;;;;;;2.30;2.10;;;3.30;99.90;;;;;;2105438;28;20580;-74
2020/12/29 02:40:23;;;;;;;2.53;1.90;;;3.30;99.90;;;;;;2105119;28;20028;-75
2020/12/29 02:41:23;;;;;;;1.98;1.77;;;3.30;99.90;;;;;;2105118;28;20027;-75
2020/12/29 02:42:24;;;;;;;3.00;2.30;;;3.20;99.90;;;;;;2104626;28;20020;-74
2020/12/29 02:43:25;;;;;;;2.10;2.00;;;3.30;99.90;;;;;;2103940;28;20492;-77
2020/12/29 02:44:26;;;;;;;2.45;2.10;;;3.20;99.90;;;;;;2104189;28;20024;-74
2020/12/29 02:45:26;;;;;;;2.38;2.05;;;3.20;99.90;;;;;;2104505;28;20028;-74
2020/12/29 02:46:27;;;;;;;2.50;2.30;;;3.20;99.90;;;;;;2104384;28;20033;-75
2020/12/29 02:47:27;;;;;;;3.28;2.92;;;3.20;99.90;;;;;;2105355;28;20049;-75
2020/12/29 02:48:28;;;;;;;2.30;2.10;;;3.20;99.90;;;;;;2105266;28;20076;-75
2020/12/29 02:49:32;;;;;;;2.15;1.85;;;3.20;99.90;;;;;;2105385;28;20016;-75
2020/12/29 02:50:33;;;;;;;2.75;1.83;;;3.20;99.90;;;;;;2105262;28;20031;-75
2020/12/29 02:51:33;;;;;;;2.70;2.17;;;3.10;99.90;;;;;;2105509;28;20032;-74
2020/12/29 02:52:34;;;;;;;2.42;2.25;;;3.10;99.90;;;;;;2105334;28;20060;-74
2020/12/29 02:53:35;;;;;;;2.30;2.15;;;3.10;99.90;;;;;;2104986;28;20063;-74
2020/12/29 02:54:35;;;;;;;2.67;2.47;;;3.10;99.90;;;;;;2105031;28;20484;-74
2020/12/29 02:55:36;;;;;;;2.50;2.30;;;3.10;99.90;;;;;;2105196;28;20027;-74
2020/12/29 02:56:37;;;;;;;3.00;1.88;;;3.10;99.90;;;;;;2104467;28;20027;-75
2020/12/29 02:57:37;;;;;;;2.10;1.90;;;3.10;99.90;;;;;;2104692;28;20078;-75
2020/12/29 02:58:38;;;;;;;2.13;1.83;;;3.00;99.90;;;;;;2105276;28;20024;-74
2020/12/29 02:59:38;;;;;;;6.13;2.38;;;3.10;99.90;;;;;;2105229;28;20078;-74
2020/12/29 03:00:39;;;;;;;3.72;2.30;;;3.00;99.90;;;;;;2105385;28;20028;-74
2020/12/29 03:01:40;;;;;;;4.22;2.17;;;3.00;99.90;;;;;;2105745;28;20102;-75
2020/12/29 03:02:40;;;;;;;2.08;1.85;;;3.00;99.90;;;;;;2105462;28;20097;-75
2020/12/29 03:03:41;;;;;;;2.10;1.90;;;3.00;99.90;;;;;;2105327;28;20020;-74
2020/12/29 03:04:41;;;;;;;3.15;2.20;;;3.00;99.90;;;;;;2105303;28;20028;-75
2020/12/29 03:05:42;;;;;;;2.42;2.10;;;3.00;99.90;;;;;;2105156;28;20085;-74
2020/12/29 03:06:42;;;;;;;2.00;1.90;;;3.00;99.90;;;;;;2105126;28;20060;-75
2020/12/29 03:07:45;;;;;;;2.25;1.95;;;3.00;99.90;;;;;;2105651;28;20026;-75
2020/12/29 03:08:46;;;;;;;2.08;1.90;;;2.90;99.90;;;;;;2105135;28;20061;-75
2020/12/29 03:09:46;;;;;;;2.75;1.88;;;2.90;99.90;;;;;;2096554;28;20036;-75
2020/12/29 03:10:47;;;;;;;2.40;2.05;;;2.90;99.90;;;;;;2104900;28;20384;-75
2020/12/29 03:11:47;;;;;;;1.73;1.63;;;2.90;99.90;;;;;;2105830;28;20073;-75
2020/12/29 03:12:48;;;;;;;3.03;2.08;;;2.90;99.90;;;;;;2105760;28;20023;-75
2020/12/29 03:13:48;;;;;;;2.15;2.03;;;2.90;99.90;;;;;;2105388;28;20103;-75
2020/12/29 03:14:49;;;;;;;2.25;2.15;;;2.80;99.90;;;;;;2105084;28;20031;-74
2020/12/29 03:15:49;;;;;;;2.08;1.95;;;2.90;99.90;;;;;;2104992;28;20016;-75
2020/12/29 03:16:50;;;;;;;2.10;1.73;;;2.80;99.90;;;;;;2105125;28;20137;-75
2020/12/29 03:17:51;;;;;;;2.28;2.08;;;2.80;99.90;;;;;;2105537;28;20028;-74
2020/12/29 03:18:52;;;;;;;3.30;2.00;;;2.80;99.90;;;;;;2105652;28;20020;-73
2020/12/29 03:19:53;;;;;;;2.63;2.05;;;2.80;99.90;;;;;;2104771;28;20381;-75
2020/12/29 03:20:53;;;;;;;2.15;2.05;;;2.80;99.90;;;;;;2104953;28;20070;-76
2020/12/29 03:21:54;;;;;;;2.78;2.05;;;2.80;99.90;;;;;;2105532;28;20016;-75
2020/12/29 03:22:55;;;;;;;2.28;1.75;;;2.80;99.90;;;;;;2104512;28;20020;-74
2020/12/29 03:23:55;;;;;;;2.65;2.25;;;2.80;99.90;;;;;;2104993;28;20024;-74
2020/12/29 03:24:56;;;;;;;2.35;2.03;;;2.80;99.90;;;;;;2105653;28;20019;-75
2020/12/29 03:25:56;;;;;;;2.25;2.10;;;2.70;99.90;;;;;;2105801;28;20024;-75
2020/12/29 03:26:57;;;;;;;2.30;2.10;;;2.70;99.90;;;;;;2105636;28;20472;-74
2020/12/29 03:27:57;;;;;;;2.45;2.25;;;2.70;99.90;;;;;;2104287;28;20021;-74
2020/12/29 03:28:59;;;;;;;3.65;2.20;;;2.70;99.90;;;;;;2104993;28;20027;-75
2020/12/29 03:30:00;;;;;;;1.80;1.70;;;2.70;99.90;;;;;;2105772;28;20437;-74
2020/12/29 03:31:01;;;;;;;2.25;1.85;;;2.70;99.90;;;;;;2105764;28;20024;-74
2020/12/29 03:32:01;;;;;;;2.40;2.08;;;2.70;99.90;;;;;;2105871;28;20027;-75
2020/12/29 03:33:02;;;;;;;3.33;2.22;;;2.70;99.90;;;;;;2105175;28;20032;-75
2020/12/29 03:34:02;;;;;;;2.35;2.15;;;2.70;99.90;;;;;;2105630;28;20098;-75
2020/12/29 03:35:03;;;;;;;1.90;1.80;;;2.70;99.90;;;;;;2105425;28;20464;-75
2020/12/29 03:36:05;;;;;;;2.13;1.90;;;2.70;99.90;;;;;;2096681;28;20024;-74
2020/12/29 03:37:10;;;;;;;2.08;1.98;;;2.70;99.90;;;;;;2096827;28;20477;-75
2020/12/29 03:38:11;;;;;;;2.45;2.10;;;2.70;99.90;;;;;;2105724;28;20028;-74
2020/12/29 03:39:12;;;;;;;3.92;1.95;;;2.70;99.90;;;;;;2105565;28;20016;-77
2020/12/29 03:40:12;;;;;;;3.88;2.30;;;2.70;99.90;;;;;;2104992;28;20030;-75
2020/12/29 03:41:13;;;;;;;2.20;2.00;;;2.70;99.90;;;;;;2105071;28;20016;-75
2020/12/29 03:42:14;;;;;;;2.42;2.22;;;2.70;99.90;;;;;;2105411;28;20034;-74
2020/12/29 03:43:14;;;;;;;2.10;1.90;;;2.70;99.90;;;;;;2105194;28;20024;-73
2020/12/29 03:44:15;;;;;;;2.72;2.45;;;2.70;99.90;;;;;;2105060;28;20032;-75
2020/12/29 03:45:15;;;;;;;4.43;2.10;;;2.70;99.90;;;;;;2105411;28;20035;-74
2020/12/29 03:46:16;;;;;;;3.67;2.30;;;2.70;99.90;;;;;;2105641;28;20104;-74
2020/12/29 03:47:16;;;;;;;3.35;2.10;;;2.70;99.90;;;;;;2105410;28;20108;-75
2020/12/29 03:48:20;;;;;;;2.42;2.20;;;2.70;99.90;;;;;;2105661;28;20532;-74
2020/12/29 03:49:20;;;;;;;2.67;2.30;;;2.70;99.90;;;;;;2105046;28;20027;-75
2020/12/29 03:50:21;;;;;;;2.40;2.20;;;2.70;99.90;;;;;;2104871;28;20464;-74
2020/12/29 03:51:21;;;;;;;2.38;2.17;;;2.70;99.90;;;;;;2104937;28;20028;-74
2020/12/29 03:52:22;;;;;;;2.30;2.10;;;2.70;99.90;;;;;;2096642;28;20546;-75
2020/12/29 03:53:22;;;;;;;3.38;2.38;;;2.70;99.90;;;;;;2104457;28;20028;-75
2020/12/29 03:54:23;;;;;;;2.33;2.20;;;2.70;99.90;;;;;;2113074;28;20099;-74
2020/12/29 03:55:23;;;;;;;2.38;2.17;;;2.70;99.90;;;;;;2105608;28;20027;-74
2020/12/29 03:56:24;;;;;;;2.55;2.28;;;2.70;99.90;;;;;;2105651;28;20016;-75
2020/12/29 03:57:24;;;;;;;2.47;2.17;;;2.70;99.90;;;;;;2105248;28;20066;-74
2020/12/29 03:58:25;;;;;;;3.60;2.33;;;2.70;99.90;;;;;;2105762;28;20613;-75
2020/12/29 03:59:25;;;;;;;2.67;2.30;;;2.70;99.90;;;;;;2105659;28;20032;-75
2020/12/29 04:00:26;;;;;;;2.55;2.35;;;2.70;99.90;;;;;;2105659;28;20020;-75
2020/12/29 04:01:27;;;;;;;2.65;2.10;;;2.70;99.90;;;;;;2105687;28;20016;-75
2020/12/29 04:02:27;;;;;;;5.40;2.60;;;2.70;99.90;;;;;;2105186;28;20070;-74
2020/12/29 04:03:28;;;;;;;2.97;2.75;;;2.70;99.90;;;;;;2104583;28;20020;-75
2020/12/29 04:04:28;;;;;;;3.70;3.15;;;2.70;99.90;;;;;;2105178;28;20023;-75
2020/12/29 04:05:29;;;;;;;3.55;2.88;;;2.70;99.90;;;;;;2096051;28;20027;-74
2020/12/29 04:06:30;;;;;;;3.92;2.83;;;2.70;99.90;;;;;;2096368;28;20052;-75
2020/12/29 04:07:31;;;;;;;7.63;3.03;;;2.70;99.90;;;;;;2104860;28;20495;-75
2020/12/29 04:08:32;;;;;;;4.25;2.75;;;2.70;99.90;;;;;;2105229;28;20036;-75
2020/12/29 04:09:33;;;;;;;4.30;2.80;;;2.70;99.90;;;;;;2104777;28;20040;-75
2020/12/29 04:10:34;;;;;;;3.72;2.80;;;2.70;99.90;;;;;;2104809;28;20039;-74
2020/12/29 04:11:34;;;;;;;4.07;3.00;;;2.70;99.90;;;;;;2104780;28;20027;-76
2020/12/29 04:12:35;;;;;;;3.75;2.88;;;2.70;99.90;;;;;;2105039;28;20024;-74
2020/12/29 04:13:36;;;;;;;2.97;2.67;;;2.70;99.90;;;;;;2103853;28;20510;-74
2020/12/29 04:14:36;;;;;;;2.70;2.50;;;2.70;99.90;;;;;;2104101;28;20495;-75
2020/12/29 04:15:37;;;;;;;5.43;2.90;;;2.70;99.90;;;;;;2104673;28;20491;-76
2020/12/29 04:16:37;;;;;;;4.00;3.63;;;2.70;99.90;;;;;;2104444;28;20043;-74
2020/12/29 04:17:39;;;;;;;3.80;3.35;;;2.70;99.90;;;;;;2104285;28;20499;-74
2020/12/29 04:18:41;;;;;;;3.88;3.42;;;2.70;99.90;;;;;;2104403;28;20031;-73
2020/12/29 04:19:41;;;;;;;3.53;3.22;;;2.70;99.90;;;;;;2104844;28;20665;-73
2020/12/29 04:20:42;;;;;;;4.10;3.45;;;2.70;99.90;;;;;;2104155;28;20054;-74
2020/12/29 04:21:42;;;;;;;5.60;3.38;;;2.70;99.90;;;;;;2104080;28;20028;-75
2020/12/29 04:22:43;;;;;;;5.25;4.13;;;2.70;99.90;;;;;;2104197;28;20025;-74
2020/12/29 04:23:44;;;;;;;4.68;3.78;;;2.70;99.90;;;;;;2104048;28;20464;-74
2020/12/29 04:24:45;;;;;;;4.40;3.58;;;2.70;99.90;;;;;;2104702;28;20020;-74
2020/12/29 04:25:45;;;;;;;3.40;3.10;;;2.60;99.90;;;;;;2104212;28;20024;-74
2020/12/29 04:26:46;;;;;;;3.53;3.03;;;2.70;99.90;;;;;;2104297;28;20492;-75
2020/12/29 04:27:46;;;;;;;3.72;3.42;;;2.70;99.90;;;;;;2104084;28;20098;-75
2020/12/29 04:28:47;;;;;;;4.47;3.83;;;2.60;99.90;;;;;;2104111;28;20028;-74
2020/12/29 04:29:48;;;;;;;6.43;3.70;;;2.60;99.90;;;;;;2104787;28;20032;-75
2020/12/29 04:30:48;;;;;;;6.00;3.58;;;2.60;99.90;;;;;;2104727;28;20066;-74
2020/12/29 04:31:49;;;;;;;3.88;3.20;;;2.60;99.90;;;;;;2105115;28;20101;-73
2020/12/29 04:32:49;;;;;;;3.45;3.15;;;2.60;99.90;;;;;;2104733;28;20095;-75
2020/12/29 04:33:50;;;;;;;4.10;3.70;;;2.60;99.90;;;;;;2104444;28;20046;-75
2020/12/29 04:34:51;;;;;;;4.68;3.65;;;2.60;99.90;;;;;;2104375;28;20028;-75
2020/12/29 04:35:51;;;;;;;4.40;3.95;;;2.70;99.90;;;;;;2104747;28;20133;-74
2020/12/29 04:36:55;;;;;;;5.03;3.50;;;2.60;99.90;;;;;;2104250;28;20157;-75
2020/12/29 04:37:56;;;;;;;4.78;3.67;;;2.60;99.90;;;;;;2104354;28;20141;-76
2020/12/29 04:38:56;;;;;;;5.10;3.40;;;2.70;99.90;;;;;;2104693;28;20179;-75
2020/12/29 04:39:57;;;;;;;3.63;3.33;;;2.60;99.90;;;;;;2105825;28;20020;-75
2020/12/29 04:40:58;;;;;;;5.57;3.58;;;2.70;99.90;;;;;;2106340;28;20027;-75
2020/12/29 04:42:09;;;;;;;3.70;3.38;;;2.70;99.90;;;;;;2106446;28;20055;-74
2020/12/29 04:43:10;;;;;;;4.40;3.53;;;2.70;99.90;;;;;;2106050;28;20047;-74
2020/12/29 04:44:10;;;;;;;4.30;3.33;;;2.70;99.90;;;;;;2106289;28;20039;-76
2020/12/29 04:45:11;;;;;;;3.85;3.33;;;2.70;99.90;;;;;;2105576;28;20107;-75
2020/12/29 04:46:12;;;;;;;3.67;3.38;;;2.70;99.90;;;;;;2105698;28;20027;-77
2020/12/29 04:47:13;;;;;;;3.97;3.67;;;2.70;99.90;;;;;;2106122;28;20063;-74
2020/12/29 04:48:14;;;;;;;5.18;4.28;;;2.70;99.90;;;;;;2106199;28;20028;-74
2020/12/29 04:49:14;;;;;;;3.90;3.50;;;2.70;99.90;;;;;;2106194;28;20032;-75
2020/12/29 04:50:18;;;;;;;3.97;3.40;;;2.70;99.90;;;;;;2105672;28;20427;-74
2020/12/29 04:51:19;;;;;;;5.70;3.90;;;2.70;99.90;;;;;;2097099;28;20025;-74
2020/12/29 04:52:21;;;;;;;5.82;4.07;;;2.70;99.90;;;;;;2097663;28;20013;-75
2020/12/29 04:53:25;;;;;;;4.53;3.17;;;2.70;99.90;;;;;;2106001;28;20017;-74
2020/12/29 04:54:29;;;;;;;4.75;3.88;;;2.70;99.90;;;;;;2106210;28;20063;-74
2020/12/29 04:55:30;;;;;;;4.43;3.88;;;2.70;99.90;;;;;;2106212;28;20111;-74
2020/12/29 04:56:32;;;;;;;6.72;4.40;;;2.80;99.90;;;;;;2105691;28;20031;-74
2020/12/29 04:57:32;;;;;;;3.97;3.58;;;2.70;99.90;;;;;;2105422;28;20020;-74
2020/12/29 04:58:35;;;;;;;5.15;4.18;;;2.80;99.90;;;;;;2106160;28;20031;-74
2020/12/29 04:59:36;;;;;;;5.15;3.80;;;2.80;99.90;;;;;;2106054;28;20016;-74
2020/12/29 05:00:36;;;;;;;7.40;4.60;;;2.80;99.90;;;;;;2106548;28;20027;-75
2020/12/29 05:01:38;;;;;;;6.15;4.13;;;2.80;99.90;;;;;;2105507;28;20028;-75
2020/12/29 05:02:38;;;;;;;4.72;4.22;;;2.80;99.90;;;;;;2105655;28;20017;-75
2020/12/29 05:03:44;;;;;;;4.25;3.88;;;2.80;99.90;;;;;;2105683;28;20020;-76
2020/12/29 05:04:45;;;;;;;5.82;4.40;;;2.80;99.90;;;;;;2105922;28;20357;-75
2020/12/29 05:05:46;;;;;;;4.20;3.80;;;2.80;99.90;;;;;;2106060;28;20077;-75
2020/12/29 05:06:46;;;;;;;4.82;4.30;;;2.90;99.90;;;;;;2106166;28;20024;-74
2020/12/29 05:07:47;;;;;;;4.30;3.78;;;2.80;99.90;;;;;;2106052;28;20043;-75
2020/12/29 05:08:53;;;;;;;3.80;3.47;;;2.80;99.90;;;;;;2106113;28;20024;-77
2020/12/29 05:09:54;;;;;;;4.00;3.58;;;2.80;99.90;;;;;;2106029;28;20023;-74
2020/12/29 05:10:54;;;;;;;4.30;3.75;;;2.90;99.90;;;;;;2105996;28;20055;-74
2020/12/29 05:11:55;;;;;;;4.35;3.92;;;2.90;99.90;;;;;;2106146;28;20103;-75
2020/12/29 05:12:56;;;;;;;3.95;3.58;;;2.90;99.90;;;;;;2105821;28;20051;-74
2020/12/29 05:13:56;;;;;;;4.97;3.85;;;2.90;99.90;;;;;;2105957;28;20032;-74
2020/12/29 05:14:58;;;;;;;6.10;4.20;;;2.90;99.90;;;;;;2106052;28;20032;-74
2020/12/29 05:15:59;;;;;;;3.55;3.15;;;2.90;99.90;;;;;;2106145;28;20020;-74
2020/12/29 05:17:01;;;;;;;3.80;3.50;;;2.90;99.90;;;;;;2105994;28;20020;-75
2020/12/29 05:18:02;;;;;;;4.03;3.63;;;2.90;99.90;;;;;;2105459;28;20403;-75
2020/12/29 05:19:11;;;;;;;3.22;2.92;;;2.90;99.90;;;;;;2105661;28;20028;-74
2020/12/29 05:20:11;;;;;;;3.17;2.97;;;3.00;99.90;;;;;;2105969;28;20589;-75
2020/12/29 05:21:12;;;;;;;3.60;3.30;;;3.00;99.90;;;;;;2106196;28;20081;-75
2020/12/29 05:22:12;;;;;;;3.50;3.20;;;3.00;99.90;;;;;;2106093;28;20035;-73